createdAt,value
2023-05-11T00:00:47.909Z,13.35
2023-05-11T00:01:47.917Z,13.35
2023-05-11T00:02:47.898Z,13.35
2023-05-11T00:03:48.017Z,13.35
2023-05-11T00:04:47.835Z,13.33
2023-05-11T00:05:47.860Z,13.28
2023-05-11T00:06:47.827Z,13.28
2023-05-11T00:07:47.817Z,13.28
2023-05-11T00:08:47.796Z,13.28
2023-05-11T00:09:47.822Z,13.25
2023-05-11T00:10:47.793Z,13.25
2023-05-11T00:11:47.775Z,13.23
2023-05-11T00:12:47.759Z,13.20
2023-05-11T00:13:47.758Z,13.19
2023-05-11T00:14:47.732Z,13.18
2023-05-11T00:15:47.780Z,13.18
2023-05-11T00:16:47.710Z,13.15
2023-05-11T00:17:47.767Z,13.15
2023-05-11T00:18:47.777Z,13.13
2023-05-11T00:19:47.694Z,13.12
2023-05-11T00:20:47.682Z,13.13
2023-05-11T00:21:47.724Z,13.12
2023-05-11T00:22:47.747Z,13.12
2023-05-11T00:23:47.653Z,13.13
2023-05-11T00:24:47.626Z,13.12
2023-05-11T00:25:47.633Z,13.09
2023-05-11T00:26:47.614Z,13.08
2023-05-11T00:27:47.660Z,13.09
2023-05-11T00:28:47.605Z,13.08
2023-05-11T00:29:47.590Z,13.04
2023-05-11T00:30:47.561Z,13.01
2023-05-11T00:31:47.587Z,13.03
2023-05-11T00:32:47.582Z,13.01
2023-05-11T00:33:47.574Z,13.00
2023-05-11T00:34:47.564Z,12.98
2023-05-11T00:35:47.526Z,13.00
2023-05-11T00:36:47.498Z,12.95
2023-05-11T00:37:47.525Z,12.95
2023-05-11T00:38:47.484Z,12.97
2023-05-11T00:39:47.518Z,12.98
2023-05-11T00:40:47.447Z,12.97
2023-05-11T00:41:47.448Z,12.97
2023-05-11T00:42:47.437Z,12.94
2023-05-11T00:43:47.471Z,12.91
2023-05-11T00:44:47.473Z,12.90
2023-05-11T00:45:47.421Z,12.91
2023-05-11T00:46:47.394Z,12.90
2023-05-11T00:47:47.419Z,12.87
2023-05-11T00:48:47.365Z,12.87
2023-05-11T00:49:47.366Z,12.90
2023-05-11T00:50:47.365Z,12.90
2023-05-11T00:51:47.351Z,12.86
2023-05-11T00:52:47.314Z,12.86
2023-05-11T00:53:47.321Z,12.91
2023-05-11T00:54:47.340Z,12.86
2023-05-11T00:55:47.317Z,12.85
2023-05-11T00:56:47.330Z,12.85
2023-05-11T00:57:47.293Z,12.83
2023-05-11T00:58:47.270Z,12.83
2023-05-11T00:59:47.333Z,12.83
2023-05-11T01:00:47.287Z,12.82
2023-05-11T01:01:47.260Z,12.80
2023-05-11T01:02:47.315Z,12.80
2023-05-11T01:03:47.244Z,12.82
2023-05-11T01:04:47.422Z,12.82
2023-05-11T01:05:47.213Z,12.82
2023-05-11T01:06:47.170Z,12.82
2023-05-11T01:07:47.170Z,12.82
2023-05-11T01:08:47.174Z,12.80
2023-05-11T01:11:03.492Z,12.79
2023-05-11T01:12:04.415Z,12.75
2023-05-11T01:13:04.423Z,12.73
2023-05-11T01:14:04.432Z,12.75
2023-05-11T01:15:04.403Z,12.73
2023-05-11T01:16:04.429Z,12.73
2023-05-11T01:17:04.415Z,12.72
2023-05-11T01:18:04.438Z,12.72
2023-05-11T01:19:04.440Z,12.73
2023-05-11T01:20:04.411Z,12.72
2023-05-11T01:21:04.353Z,12.72
2023-05-11T01:22:04.328Z,12.70
2023-05-11T01:23:04.337Z,12.67
2023-05-11T01:24:04.302Z,12.67
2023-05-11T01:25:04.304Z,12.65
2023-05-11T01:26:04.320Z,12.67
2023-05-11T01:27:04.279Z,12.62
2023-05-11T01:28:04.268Z,12.64
2023-05-11T01:29:04.263Z,12.61
2023-05-11T06:00:45.686Z,12.82
2023-05-11T06:01:46.180Z,12.87
2023-05-11T06:02:46.088Z,12.86
2023-05-11T06:03:46.176Z,12.85
2023-05-11T06:04:46.053Z,12.83
2023-05-11T06:05:46.049Z,12.80
2023-05-11T06:06:45.992Z,12.79
2023-05-11T06:07:54.418Z,12.80
2023-05-11T06:08:45.984Z,12.80
2023-05-11T06:09:45.976Z,12.82
2023-05-11T06:10:45.971Z,12.85
2023-05-11T06:11:45.991Z,12.87
2023-05-11T06:12:45.943Z,12.91
2023-05-11T06:13:45.930Z,12.93
2023-05-11T06:14:45.920Z,12.93
2023-05-11T06:15:45.926Z,12.93
2023-05-11T06:16:45.958Z,12.94
2023-05-11T06:17:45.939Z,12.94
2023-05-11T06:18:45.892Z,12.94
2023-05-11T06:19:45.896Z,12.95
2023-05-11T06:20:45.847Z,12.94
2023-05-11T06:21:45.869Z,12.97
2023-05-11T06:22:45.850Z,12.97
2023-05-11T06:23:45.819Z,13.00
2023-05-11T06:24:45.791Z,13.01
2023-05-11T06:25:45.799Z,13.03
2023-05-11T06:26:45.790Z,13.01
2023-05-11T06:27:45.804Z,12.98
2023-05-11T06:28:45.759Z,12.98
2023-05-11T06:29:45.765Z,13.00
2023-05-11T06:30:45.732Z,13.00
2023-05-11T06:31:45.787Z,13.01
2023-05-11T06:32:45.765Z,13.04
2023-05-11T06:33:45.726Z,13.08
2023-05-11T06:34:45.697Z,13.11
2023-05-11T06:35:45.710Z,13.12
2023-05-11T06:36:45.692Z,13.13
2023-05-11T06:37:45.685Z,13.13
2023-05-11T06:38:45.883Z,13.15
2023-05-11T06:39:45.658Z,13.18
2023-05-11T06:40:45.640Z,13.20
2023-05-11T06:41:45.630Z,13.23
2023-05-11T06:42:45.599Z,13.27
2023-05-11T06:43:45.607Z,13.28
2023-05-11T06:44:45.635Z,13.30
2023-05-11T06:45:45.645Z,13.31
2023-05-11T06:46:45.565Z,13.31
2023-05-11T06:47:45.669Z,13.31
2023-05-11T06:48:45.571Z,13.30
2023-05-11T06:49:45.563Z,13.31
2023-05-11T06:50:45.584Z,13.35
2023-05-11T06:51:45.523Z,13.38
2023-05-11T06:52:45.539Z,13.41
2023-05-11T06:53:45.548Z,13.46
2023-05-11T06:54:45.477Z,13.50
2023-05-11T06:55:45.559Z,13.54
2023-05-11T06:56:45.471Z,13.60
2023-05-11T06:57:46.240Z,13.60
2023-05-11T06:58:45.463Z,13.63
2023-05-11T06:59:45.489Z,13.70
2023-05-11T07:00:45.454Z,13.72
2023-05-11T07:01:45.480Z,13.75
2023-05-11T07:02:45.439Z,13.79
2023-05-11T07:03:45.391Z,13.86
2023-05-11T07:04:45.400Z,13.86
2023-05-11T07:05:45.454Z,13.89
2023-05-11T07:06:45.360Z,13.93
2023-05-11T07:07:45.359Z,13.96
2023-05-11T07:08:45.332Z,13.99
2023-05-11T07:09:45.344Z,13.99
2023-05-11T07:10:45.314Z,14.03
2023-05-11T07:11:45.406Z,14.03
2023-05-11T07:12:45.299Z,14.03
2023-05-11T07:13:45.330Z,14.00
2023-05-11T07:14:45.286Z,14.03
2023-05-11T07:15:45.336Z,14.05
2023-05-11T07:16:45.276Z,14.10
2023-05-11T07:17:45.330Z,14.11
2023-05-11T07:18:45.283Z,14.12
2023-05-11T07:19:45.255Z,14.10
2023-05-11T07:20:45.228Z,14.11
2023-05-11T07:21:45.234Z,14.14
2023-05-11T07:22:45.205Z,14.14
2023-05-11T07:23:45.179Z,14.20
2023-05-11T07:24:45.163Z,14.20
2023-05-11T07:25:45.182Z,14.23
2023-05-11T07:26:45.130Z,14.26
2023-05-11T07:27:45.155Z,14.29
2023-05-11T07:28:45.130Z,14.33
2023-05-11T07:29:45.120Z,14.36
2023-05-11T07:30:45.088Z,14.43
2023-05-11T07:31:45.153Z,14.45
2023-05-11T07:32:45.136Z,14.50
2023-05-11T07:33:45.121Z,14.51
2023-05-11T07:34:45.047Z,14.54
2023-05-11T07:35:45.058Z,14.55
2023-05-11T07:36:45.035Z,14.60
2023-05-11T07:37:45.046Z,14.62
2023-05-11T07:38:45.006Z,14.65
2023-05-11T07:39:45.064Z,14.66
2023-05-11T07:40:44.988Z,14.68
2023-05-11T07:41:44.988Z,14.72
2023-05-11T07:42:44.975Z,14.73
2023-05-11T07:43:44.967Z,14.77
2023-05-11T07:44:44.960Z,14.81
2023-05-11T07:45:44.961Z,14.79
2023-05-11T07:46:44.974Z,14.82
2023-05-11T07:47:45.150Z,14.85
2023-05-11T07:48:44.950Z,14.85
2023-05-11T07:49:44.906Z,14.89
2023-05-11T07:50:44.932Z,14.92
2023-05-11T07:51:44.906Z,14.92
2023-05-11T07:52:44.854Z,14.97
2023-05-11T07:53:44.855Z,14.99
2023-05-11T07:54:44.833Z,15.02
2023-05-11T07:55:44.834Z,15.03
2023-05-11T07:56:44.835Z,15.04
2023-05-11T07:57:45.006Z,15.04
2023-05-11T07:58:44.787Z,15.04
2023-05-11T07:59:44.835Z,15.06
2023-05-11T08:00:44.774Z,15.04
2023-05-11T08:01:44.829Z,15.07
2023-05-11T08:02:44.921Z,15.10
2023-05-11T08:03:44.751Z,15.15
2023-05-11T08:04:44.755Z,15.11
2023-05-11T08:05:44.784Z,15.15
2023-05-11T08:06:44.715Z,15.17
2023-05-11T08:07:44.720Z,15.18
2023-05-11T08:08:44.696Z,15.21
2023-05-11T08:09:44.721Z,15.22
2023-05-11T08:10:44.715Z,15.27
2023-05-11T08:11:44.667Z,15.29
2023-05-11T08:12:44.641Z,15.31
2023-05-11T08:13:44.904Z,15.36
2023-05-11T08:14:44.646Z,15.37
2023-05-11T08:15:44.627Z,15.42
2023-05-11T08:16:44.853Z,15.43
2023-05-11T08:17:44.611Z,15.44
2023-05-11T08:18:44.667Z,15.47
2023-05-11T08:19:44.601Z,15.49
2023-05-11T08:20:44.584Z,15.55
2023-05-11T08:21:44.553Z,15.58
2023-05-11T08:22:44.540Z,15.61
2023-05-11T08:23:45.272Z,15.61
2023-05-11T08:24:44.567Z,15.64
2023-05-11T08:25:44.525Z,15.64
2023-05-11T08:26:44.549Z,15.64
2023-05-11T08:27:44.506Z,15.67
2023-05-11T08:28:44.487Z,15.68
2023-05-11T08:29:44.494Z,15.75
2023-05-11T08:30:44.489Z,15.77
2023-05-11T08:31:44.484Z,15.82
2023-05-11T08:33:44.547Z,15.86
2023-05-11T08:34:44.492Z,15.86
2023-05-11T08:35:44.414Z,15.90
2023-05-11T08:36:44.416Z,15.90
2023-05-11T08:37:44.390Z,15.84
2023-05-11T08:38:44.378Z,15.80
2023-05-11T08:39:47.687Z,15.82
2023-05-11T08:40:44.382Z,15.76
2023-05-11T08:41:44.357Z,15.73
2023-05-11T08:42:44.384Z,15.67
2023-05-11T08:43:44.343Z,15.64
2023-05-11T08:44:44.337Z,15.59
2023-05-11T08:45:44.354Z,15.58
2023-05-11T08:46:44.288Z,15.54
2023-05-11T08:47:44.340Z,15.55
2023-05-11T08:48:44.296Z,15.55
2023-05-11T08:49:44.284Z,15.52
2023-05-11T08:50:44.258Z,15.55
2023-05-11T08:51:44.328Z,15.57
2023-05-11T08:52:44.233Z,15.57
2023-05-11T08:53:44.201Z,15.57
2023-05-11T08:54:44.315Z,15.57
2023-05-11T08:55:44.192Z,15.61
2023-05-11T08:56:44.251Z,15.62
2023-05-11T08:57:44.166Z,15.62
2023-05-11T08:58:44.215Z,15.61
2023-05-11T08:59:44.148Z,15.64
2023-05-11T09:00:44.188Z,15.62
2023-05-11T09:01:44.210Z,15.65
2023-05-11T09:02:44.171Z,15.62
2023-05-11T09:03:44.093Z,15.58
2023-05-11T09:04:46.021Z,15.54
2023-05-11T09:05:44.160Z,15.49
2023-05-11T09:06:44.116Z,15.47
2023-05-11T09:07:44.063Z,15.44
2023-05-11T09:08:44.057Z,15.43
2023-05-11T09:09:44.056Z,15.40
2023-05-11T09:10:44.061Z,15.40
2023-05-11T09:11:44.034Z,15.43
2023-05-11T09:12:44.021Z,15.42
2023-05-11T09:13:44.051Z,15.46
2023-05-11T09:14:44.083Z,15.47
2023-05-11T09:15:44.005Z,15.52
2023-05-11T09:16:44.066Z,15.57
2023-05-11T09:17:44.046Z,15.58
2023-05-11T09:18:44.000Z,15.62
2023-05-11T09:19:43.976Z,15.64
2023-05-11T09:20:43.947Z,15.65
2023-05-11T09:21:43.903Z,15.67
2023-05-11T09:22:43.931Z,15.70
2023-05-11T09:23:43.897Z,15.72
2023-05-11T09:24:43.904Z,15.70
2023-05-11T09:25:43.871Z,15.73
2023-05-11T09:26:43.909Z,15.73
2023-05-11T09:27:43.855Z,15.72
2023-05-11T09:28:46.095Z,15.70
2023-05-11T09:29:44.006Z,15.73
2023-05-11T09:30:43.842Z,15.70
2023-05-11T09:31:43.862Z,15.70
2023-05-11T09:32:43.856Z,15.73
2023-05-11T09:33:43.797Z,15.77
2023-05-11T09:34:43.789Z,15.82
2023-05-11T09:35:43.801Z,15.76
2023-05-11T09:36:43.765Z,15.75
2023-05-11T09:37:43.758Z,15.76
2023-05-11T09:38:43.788Z,15.79
2023-05-11T09:39:59.188Z,15.79
2023-05-11T09:40:43.752Z,15.82
2023-05-11T09:41:43.729Z,15.86
2023-05-11T09:42:43.706Z,15.88
2023-05-11T09:43:43.670Z,15.92
2023-05-11T09:44:43.685Z,15.94
2023-05-11T09:45:43.657Z,15.97
2023-05-11T09:46:43.678Z,16.01
2023-05-11T09:47:43.683Z,16.02
2023-05-11T09:48:43.629Z,16.04
2023-05-11T09:49:43.631Z,16.05
2023-05-11T09:50:43.620Z,16.10
2023-05-11T09:51:43.583Z,16.10
2023-05-11T09:52:43.672Z,16.09
2023-05-11T09:53:43.757Z,16.10
2023-05-11T09:54:43.576Z,16.10
2023-05-11T09:55:43.557Z,16.15
2023-05-11T09:56:43.565Z,16.17
2023-05-11T09:57:43.536Z,16.20
2023-05-11T09:58:43.712Z,16.20
2023-05-11T09:59:43.506Z,16.17
2023-05-11T10:00:43.538Z,16.16
2023-05-11T10:01:43.538Z,16.20
2023-05-11T10:02:43.531Z,16.21
2023-05-11T10:03:43.525Z,16.23
2023-05-11T10:04:43.501Z,16.26
2023-05-11T10:05:43.436Z,16.31
2023-05-11T10:06:43.452Z,16.29
2023-05-11T10:07:43.451Z,16.33
2023-05-11T10:08:43.431Z,16.33
2023-05-11T10:09:43.407Z,16.33
2023-05-11T10:10:43.427Z,16.35
2023-05-11T10:11:43.386Z,16.38
2023-05-11T10:12:43.390Z,16.39
2023-05-11T10:13:43.372Z,16.41
2023-05-11T10:14:43.353Z,16.43
2023-05-11T10:15:43.396Z,16.46
2023-05-11T10:16:43.401Z,16.49
2023-05-11T10:17:43.314Z,16.50
2023-05-11T10:18:43.367Z,16.50
2023-05-11T10:19:43.295Z,16.53
2023-05-11T10:20:43.313Z,16.53
2023-05-11T10:21:43.266Z,16.54
2023-05-11T10:22:43.288Z,16.54
2023-05-11T10:23:43.270Z,16.54
2023-05-11T10:24:43.266Z,16.54
2023-05-11T10:25:43.230Z,16.56
2023-05-11T10:26:43.255Z,16.58
2023-05-11T10:27:43.214Z,16.61
2023-05-11T10:28:43.217Z,16.68
2023-05-11T10:29:43.189Z,16.71
2023-05-11T10:30:43.205Z,16.74
2023-05-11T10:31:43.187Z,16.75
2023-05-11T10:32:43.214Z,16.78
2023-05-11T10:33:43.154Z,16.76
2023-05-11T10:34:43.149Z,16.75
2023-05-11T10:35:43.119Z,16.75
2023-05-11T10:36:43.120Z,16.75
2023-05-11T10:37:43.096Z,16.75
2023-05-11T10:38:43.146Z,16.78
2023-05-11T10:39:43.091Z,16.79
2023-05-11T10:40:43.094Z,16.78
2023-05-11T10:41:43.068Z,16.76
2023-05-11T10:42:43.067Z,16.76
2023-05-11T10:43:43.021Z,16.75
2023-05-11T10:44:43.066Z,16.75
2023-05-11T10:45:43.019Z,16.75
2023-05-11T10:46:43.080Z,16.76
2023-05-11T10:47:43.002Z,16.74
2023-05-11T10:48:42.996Z,16.71
2023-05-11T10:49:42.970Z,16.68
2023-05-11T10:50:43.424Z,16.68
2023-05-11T10:51:42.942Z,16.61
2023-05-11T10:52:42.977Z,16.60
2023-05-11T10:53:42.915Z,16.58
2023-05-11T10:54:42.920Z,16.58
2023-05-11T10:55:44.164Z,16.57
2023-05-11T10:56:42.950Z,16.58
2023-05-11T10:57:42.901Z,16.56
2023-05-11T10:58:42.919Z,16.54
2023-05-11T10:59:42.851Z,16.54
2023-05-11T11:00:42.904Z,16.53
2023-05-11T11:01:42.903Z,16.51
2023-05-11T11:02:42.947Z,16.51
2023-05-11T11:03:42.825Z,16.51
2023-05-11T11:04:42.816Z,16.53
2023-05-11T11:05:42.837Z,16.51
2023-05-11T11:06:42.851Z,16.51
2023-05-11T11:07:42.780Z,16.53
2023-05-11T11:08:42.825Z,16.51
2023-05-11T11:09:42.748Z,16.54
2023-05-11T11:10:42.751Z,16.51
2023-05-11T11:11:42.726Z,16.51
2023-05-11T11:12:42.723Z,16.51
2023-05-11T11:13:42.720Z,16.53
2023-05-11T11:14:42.762Z,16.53
2023-05-11T11:15:42.705Z,16.53
2023-05-11T11:16:42.745Z,16.54
2023-05-11T11:17:42.693Z,16.58
2023-05-11T11:18:42.710Z,16.57
2023-05-11T11:19:42.694Z,16.57
2023-05-11T11:20:42.672Z,16.58
2023-05-11T11:21:42.714Z,16.57
2023-05-11T11:22:42.639Z,16.60
2023-05-11T11:23:42.595Z,16.60
2023-05-11T11:24:42.626Z,16.61
2023-05-11T11:25:42.615Z,16.61
2023-05-11T11:26:42.620Z,16.66
2023-05-11T11:27:42.556Z,16.65
2023-05-11T11:28:42.558Z,16.68
2023-05-11T11:29:42.525Z,16.69
2023-05-11T11:30:42.533Z,16.69
2023-05-11T11:31:42.622Z,16.72
2023-05-11T11:32:45.466Z,16.66
2023-05-11T11:33:42.487Z,16.65
2023-05-11T11:34:42.508Z,16.69
2023-05-11T11:35:42.946Z,16.72
2023-05-11T11:36:42.477Z,16.72
2023-05-11T11:37:42.453Z,16.71
2023-05-11T11:38:42.487Z,16.69
2023-05-11T11:39:42.465Z,16.72
2023-05-11T11:40:50.537Z,16.74
2023-05-11T11:41:42.404Z,16.74
2023-05-11T11:42:42.403Z,16.76
2023-05-11T11:43:42.481Z,16.74
2023-05-11T11:44:42.458Z,16.74
2023-05-11T11:45:42.367Z,16.75
2023-05-11T11:46:42.405Z,16.76
2023-05-11T11:47:42.389Z,16.75
2023-05-11T11:48:42.366Z,16.78
2023-05-11T11:49:42.335Z,16.76
2023-05-11T11:50:42.373Z,16.78
2023-05-11T11:51:42.371Z,16.78
2023-05-11T11:52:42.305Z,16.78
2023-05-11T11:53:42.316Z,16.78
2023-05-11T11:54:42.297Z,16.78
2023-05-11T11:55:42.249Z,16.75
2023-05-11T11:56:42.303Z,16.75
2023-05-11T11:57:42.278Z,16.72
2023-05-11T11:58:42.317Z,16.69
2023-05-11T11:59:42.204Z,16.71
2023-05-11T12:00:42.249Z,16.68
2023-05-11T12:01:42.196Z,16.68
2023-05-11T12:02:42.231Z,16.68
2023-05-11T12:03:42.326Z,16.65
2023-05-11T12:04:42.206Z,16.65
2023-05-11T12:05:42.204Z,16.68
2023-05-11T12:06:42.165Z,16.68
2023-05-11T12:07:42.140Z,16.68
2023-05-11T12:08:42.129Z,16.65
2023-05-11T12:09:42.138Z,16.61
2023-05-11T12:10:42.110Z,16.61
2023-05-11T12:11:42.081Z,16.60
2023-05-11T12:12:42.124Z,16.60
2023-05-11T12:13:42.055Z,16.61
2023-05-11T12:14:42.114Z,16.60
2023-05-11T12:15:42.038Z,16.60
2023-05-11T12:16:42.061Z,16.56
2023-05-11T12:17:42.044Z,16.56
2023-05-11T12:18:42.086Z,16.54
2023-05-11T12:19:41.985Z,16.53
2023-05-11T12:20:42.010Z,16.49
2023-05-11T12:21:41.962Z,16.46
2023-05-11T12:22:41.989Z,16.49
2023-05-11T12:23:41.974Z,16.49
2023-05-11T12:24:42.018Z,16.49
2023-05-11T12:25:41.948Z,16.50
2023-05-11T12:26:41.960Z,16.47
2023-05-11T12:27:41.899Z,16.43
2023-05-11T12:28:41.914Z,16.43
2023-05-11T12:29:41.889Z,16.39
2023-05-11T12:30:41.931Z,16.39
2023-05-11T12:31:41.935Z,16.41
2023-05-11T12:32:41.919Z,16.42
2023-05-11T12:33:41.845Z,16.41
2023-05-11T12:34:42.286Z,16.42
2023-05-11T12:35:41.913Z,16.41
2023-05-11T12:36:41.960Z,16.38
2023-05-11T12:37:41.823Z,16.36
2023-05-11T12:38:41.816Z,16.38
2023-05-11T12:39:41.786Z,16.35
2023-05-11T12:40:41.845Z,16.35
2023-05-11T12:41:41.776Z,16.36
2023-05-11T12:42:41.776Z,16.33
2023-05-11T12:43:41.800Z,16.32
2023-05-11T12:44:41.746Z,16.33
2023-05-11T12:45:41.721Z,16.32
2023-05-11T12:46:41.783Z,16.29
2023-05-11T12:47:41.720Z,16.28
2023-05-11T12:48:41.771Z,16.26
2023-05-11T12:49:41.673Z,16.20
2023-05-11T12:50:41.683Z,16.17
2023-05-11T12:51:41.701Z,16.13
2023-05-11T12:52:41.704Z,16.13
2023-05-11T12:53:41.647Z,16.13
2023-05-11T12:54:41.646Z,16.15
2023-05-11T12:55:41.631Z,16.12
2023-05-11T12:56:41.669Z,16.13
2023-05-11T12:57:41.650Z,16.16
2023-05-11T12:58:41.668Z,16.17
2023-05-11T12:59:41.571Z,16.20
2023-05-11T13:00:41.574Z,16.17
2023-05-11T13:01:41.641Z,16.21
2023-05-11T13:02:41.631Z,16.17
2023-05-11T13:03:41.717Z,16.16
2023-05-11T13:04:41.551Z,16.17
2023-05-11T13:05:41.521Z,16.20
2023-05-11T13:06:41.526Z,16.17
2023-05-11T13:07:41.492Z,16.20
2023-05-11T13:08:41.465Z,16.20
2023-05-11T13:09:41.504Z,16.17
2023-05-11T13:10:41.489Z,16.16
2023-05-11T13:11:41.463Z,16.13
2023-05-11T13:12:41.461Z,16.12
2023-05-11T13:13:41.449Z,16.12
2023-05-11T13:14:41.407Z,16.15
2023-05-11T13:15:41.555Z,16.16
2023-05-11T13:16:41.447Z,16.13
2023-05-11T13:17:41.437Z,16.10
2023-05-11T13:18:41.428Z,16.09
2023-05-11T13:19:41.386Z,16.12
2023-05-11T13:20:41.412Z,16.12
2023-05-11T13:21:41.373Z,16.10
2023-05-11T13:22:41.384Z,16.08
2023-05-11T13:23:41.405Z,16.05
2023-05-11T13:24:41.331Z,16.04
2023-05-11T13:25:41.303Z,16.05
2023-05-11T13:26:41.278Z,16.02
2023-05-11T13:27:41.294Z,16.01
2023-05-11T13:28:41.274Z,15.95
2023-05-11T13:29:41.248Z,15.92
2023-05-11T13:30:41.276Z,15.84
2023-05-11T13:31:41.287Z,15.80
2023-05-11T13:32:41.243Z,15.73
2023-05-11T13:33:41.219Z,15.76
2023-05-11T13:34:41.214Z,15.73
2023-05-11T13:35:41.198Z,15.72
2023-05-11T13:36:41.186Z,15.67
2023-05-11T13:37:41.181Z,15.62
2023-05-11T13:38:41.160Z,15.61
2023-05-11T13:39:41.191Z,15.59
2023-05-11T13:40:41.154Z,15.58
2023-05-11T13:41:41.138Z,15.59
2023-05-11T13:42:41.099Z,15.59
2023-05-11T13:43:41.103Z,15.59
2023-05-11T13:44:41.081Z,15.57
2023-05-11T13:45:41.149Z,15.57
2023-05-11T13:46:41.144Z,15.57
2023-05-11T13:47:43.150Z,15.57
2023-05-11T13:48:41.060Z,15.58
2023-05-11T13:49:41.093Z,15.59
2023-05-11T13:50:41.034Z,15.58
2023-05-11T13:51:41.020Z,15.58
2023-05-11T13:52:41.013Z,15.58
2023-05-11T13:53:41.008Z,15.54
2023-05-11T13:54:40.979Z,15.46
2023-05-11T13:55:41.000Z,15.47
2023-05-11T13:56:40.974Z,15.49
2023-05-11T13:57:40.983Z,15.47
2023-05-11T13:58:40.978Z,15.51
2023-05-11T13:59:40.937Z,15.52
2023-05-11T14:00:40.997Z,15.55
2023-05-11T14:01:41.023Z,15.55
2023-05-11T14:02:41.055Z,15.54
2023-05-11T14:03:40.968Z,15.51
2023-05-11T14:04:40.887Z,15.46
2023-05-11T14:05:40.876Z,15.44
2023-05-11T14:06:40.879Z,15.42
2023-05-11T14:07:47.953Z,15.42
2023-05-11T14:08:40.847Z,15.43
2023-05-11T14:09:40.928Z,15.40
2023-05-11T14:10:40.820Z,15.40
2023-05-11T14:11:40.813Z,15.40
2023-05-11T14:12:40.808Z,15.43
2023-05-11T14:13:40.794Z,15.46
2023-05-11T14:14:40.777Z,15.49
2023-05-11T14:15:40.793Z,15.52
2023-05-11T14:16:40.777Z,15.54
2023-05-11T14:17:40.863Z,15.49
2023-05-11T14:18:40.902Z,15.47
2023-05-11T14:19:40.818Z,15.47
2023-05-11T14:20:40.701Z,15.46
2023-05-11T14:21:40.783Z,15.47
2023-05-11T14:22:40.688Z,15.42
2023-05-11T14:23:47.264Z,15.42
2023-05-11T14:24:40.669Z,15.43
2023-05-11T14:25:40.690Z,15.44
2023-05-11T14:26:40.671Z,15.46
2023-05-11T14:27:40.696Z,15.43
2023-05-11T14:28:40.627Z,15.42
2023-05-11T14:29:43.292Z,15.42
2023-05-11T14:30:40.665Z,15.46
2023-05-11T14:31:40.602Z,15.49
2023-05-11T14:32:40.654Z,15.49
2023-05-11T14:33:40.620Z,15.52
2023-05-11T14:34:40.552Z,15.55
2023-05-11T14:35:40.565Z,15.57
2023-05-11T14:36:40.560Z,15.59
2023-05-11T14:37:40.544Z,15.59
2023-05-11T14:38:40.521Z,15.64
2023-05-11T14:39:40.543Z,15.65
2023-05-11T14:40:40.497Z,15.65
2023-05-11T14:41:40.493Z,15.72
2023-05-11T14:42:40.476Z,15.76
2023-05-11T14:43:40.492Z,15.80
2023-05-11T14:44:40.452Z,15.82
2023-05-11T14:45:40.515Z,15.82
2023-05-11T14:46:40.522Z,15.88
2023-05-11T14:47:40.452Z,15.84
2023-05-11T14:48:40.411Z,15.86
2023-05-11T14:49:40.440Z,15.86
2023-05-11T14:50:40.393Z,15.90
2023-05-11T14:51:40.482Z,15.86
2023-05-11T14:52:40.387Z,15.84
2023-05-11T14:53:40.387Z,15.83
2023-05-11T14:54:40.339Z,15.83
2023-05-11T14:55:40.349Z,15.83
2023-05-11T14:56:40.319Z,15.83
2023-05-11T14:57:40.378Z,15.84
2023-05-11T14:58:40.310Z,15.86
2023-05-11T14:59:51.210Z,15.88
2023-05-11T15:00:40.276Z,15.86
2023-05-11T15:01:40.317Z,15.86
2023-05-11T15:02:40.332Z,15.82
2023-05-11T15:03:40.367Z,15.79
2023-05-11T15:04:40.446Z,15.77
2023-05-11T15:05:40.273Z,15.73
2023-05-11T15:06:40.227Z,15.70
2023-05-11T15:07:40.228Z,15.75
2023-05-11T15:08:40.196Z,15.72
2023-05-11T15:09:40.378Z,15.73
2023-05-11T15:10:40.190Z,15.68
2023-05-11T15:11:40.195Z,15.64
2023-05-11T15:12:40.270Z,15.65
2023-05-11T15:13:40.170Z,15.65
2023-05-11T15:14:40.224Z,15.62
2023-05-11T15:15:40.214Z,15.58
2023-05-11T15:16:40.218Z,15.55
2023-05-11T15:17:40.172Z,15.57
2023-05-11T15:18:42.767Z,15.55
2023-05-11T15:19:40.095Z,15.55
2023-05-11T15:20:40.068Z,15.54
2023-05-11T15:21:40.137Z,15.57
2023-05-11T15:22:40.065Z,15.55
2023-05-11T15:23:40.084Z,15.55
2023-05-11T15:24:40.028Z,15.54
2023-05-11T15:25:40.060Z,15.57
2023-05-11T15:26:40.024Z,15.55
2023-05-11T15:27:40.033Z,15.55
2023-05-11T15:28:39.992Z,15.57
2023-05-11T15:29:40.010Z,15.58
2023-05-11T15:30:39.954Z,15.57
2023-05-11T15:31:40.070Z,15.57
2023-05-11T15:32:40.041Z,15.57
2023-05-11T15:33:40.111Z,15.58
2023-05-11T15:34:54.901Z,15.58
2023-05-11T15:35:39.933Z,15.57
2023-05-11T15:36:39.902Z,15.54
2023-05-11T15:37:39.904Z,15.54
2023-05-11T15:38:39.921Z,15.52
2023-05-11T15:39:39.894Z,15.55
2023-05-11T15:40:39.857Z,15.54
2023-05-11T15:41:39.862Z,15.55
2023-05-11T15:42:40.161Z,15.55
2023-05-11T15:43:39.856Z,15.55
2023-05-11T15:44:39.854Z,15.54
2023-05-11T15:45:39.858Z,15.51
2023-05-11T15:46:39.798Z,15.51
2023-05-11T15:47:39.839Z,15.54
2023-05-11T15:48:39.782Z,15.52
2023-05-11T15:49:39.818Z,15.54
2023-05-11T15:50:39.766Z,15.51
2023-05-11T15:51:39.758Z,15.47
2023-05-11T15:52:39.762Z,15.47
2023-05-11T15:53:39.730Z,15.46
2023-05-11T15:54:39.726Z,15.46
2023-05-11T15:55:39.706Z,15.42
2023-05-11T15:56:39.741Z,15.37
2023-05-11T15:57:39.695Z,15.39
2023-05-11T15:58:39.652Z,15.39
2023-05-11T15:59:39.663Z,15.35
2023-05-11T16:00:39.631Z,15.39
2023-05-11T16:01:39.717Z,15.39
2023-05-11T16:02:39.706Z,15.37
2023-05-11T16:03:39.679Z,15.39
2023-05-11T16:04:39.589Z,15.39
2023-05-11T16:05:40.177Z,15.37
2023-05-11T16:06:39.626Z,15.39
2023-05-11T16:07:39.629Z,15.39
2023-05-11T16:08:39.655Z,15.39
2023-05-11T16:09:39.556Z,15.39
2023-05-11T16:10:39.551Z,15.39
2023-05-11T16:11:40.373Z,15.37
2023-05-11T16:12:39.537Z,15.36
2023-05-11T16:13:39.530Z,15.37
2023-05-11T16:14:39.504Z,15.39
2023-05-11T16:15:39.504Z,15.37
2023-05-11T16:16:39.509Z,15.40
2023-05-11T16:17:39.475Z,15.42
2023-05-11T16:18:39.512Z,15.39
2023-05-11T16:19:39.495Z,15.39
2023-05-11T16:20:39.429Z,15.37
2023-05-11T16:21:39.452Z,15.37
2023-05-11T16:22:39.409Z,15.33
2023-05-11T16:23:39.424Z,15.28
2023-05-11T16:24:39.372Z,15.24
2023-05-11T16:25:39.391Z,15.22
2023-05-11T16:26:39.386Z,15.19
2023-05-11T16:27:39.356Z,15.21
2023-05-11T16:28:39.358Z,15.22
2023-05-11T16:29:39.342Z,15.22
2023-05-11T16:30:39.344Z,15.21
2023-05-11T16:31:39.397Z,15.21
2023-05-11T16:32:39.328Z,15.21
2023-05-11T16:33:39.301Z,15.24
2023-05-11T16:34:39.285Z,15.27
2023-05-11T16:35:39.292Z,15.27
2023-05-11T16:36:39.278Z,15.25
2023-05-11T16:37:39.296Z,15.25
2023-05-11T16:38:39.226Z,15.27
2023-05-11T16:39:39.259Z,15.25
2023-05-11T16:40:39.220Z,15.24
2023-05-11T16:41:39.221Z,15.25
2023-05-11T16:42:39.180Z,15.27
2023-05-11T16:43:39.214Z,15.25
2023-05-11T16:44:39.171Z,15.25
2023-05-11T16:45:39.173Z,15.22
2023-05-11T16:46:39.207Z,15.24
2023-05-11T16:47:39.192Z,15.22
2023-05-11T16:48:39.180Z,15.21
2023-05-11T16:49:39.127Z,15.22
2023-05-11T16:50:39.121Z,15.21
2023-05-11T16:51:39.134Z,15.22
2023-05-11T16:52:39.077Z,15.19
2023-05-11T16:53:39.103Z,15.18
2023-05-11T16:54:39.100Z,15.11
2023-05-11T16:55:39.105Z,15.10
2023-05-11T16:56:39.102Z,15.11
2023-05-11T16:57:39.084Z,15.11
2023-05-11T16:58:39.018Z,15.14
2023-05-11T16:59:39.050Z,15.09
2023-05-11T17:00:39.018Z,15.14
2023-05-11T17:01:39.048Z,15.10
2023-05-11T17:02:39.033Z,15.11
2023-05-11T17:03:39.086Z,15.10
2023-05-11T17:04:38.945Z,15.07
2023-05-11T17:05:38.985Z,15.07
2023-05-11T17:06:38.955Z,15.03
2023-05-11T17:07:38.969Z,15.03
2023-05-11T17:08:38.921Z,15.04
2023-05-11T17:09:38.918Z,15.04
2023-05-11T17:10:38.907Z,15.04
2023-05-11T17:11:38.939Z,15.06
2023-05-11T17:12:38.860Z,15.06
2023-05-11T17:13:38.918Z,15.03
2023-05-11T17:14:38.859Z,15.04
2023-05-11T17:15:38.882Z,15.04
2023-05-11T17:16:38.887Z,15.03
2023-05-11T17:17:38.888Z,15.03
2023-05-11T17:18:38.852Z,15.03
2023-05-11T17:19:38.854Z,15.03
2023-05-11T17:20:38.790Z,15.02
2023-05-11T17:21:38.782Z,15.03
2023-05-11T17:22:38.779Z,15.03
2023-05-11T17:23:38.763Z,15.04
2023-05-11T17:24:38.807Z,15.03
2023-05-11T17:25:38.742Z,15.00